sensor_id;sensor_type;location;lat;lon;timestamp;P1;durP1;ratioP1;P2;durP2;ratioP2
30892;SDS011;17595;50.884;4.346;2022-11-21T00:00:15;13.32;;;3.47;;
30892;SDS011;17595;50.884;4.346;2022-11-21T00:02:41;10.52;;;3.47;;
30892;SDS011;17595;50.884;4.346;2022-11-21T00:05:06;9.90;;;3.40;;
30892;SDS011;17595;50.884;4.346;2022-11-21T00:07:32;16.00;;;3.95;;
30892;SDS011;17595;50.884;4.346;2022-11-21T00:09:58;9.93;;;3.35;;
30892;SDS011;17595;50.884;4.346;2022-11-21T00:12:23;15.65;;;3.50;;
30892;SDS011;17595;50.884;4.346;2022-11-21T00:14:49;10.27;;;3.35;;
30892;SDS011;17595;50.884;4.346;2022-11-21T00:17:15;12.38;;;4.18;;
30892;SDS011;17595;50.884;4.346;2022-11-21T00:19:40;13.27;;;4.13;;
30892;SDS011;17595;50.884;4.346;2022-11-21T00:22:06;14.80;;;4.50;;
30892;SDS011;17595;50.884;4.346;2022-11-21T00:24:31;9.77;;;3.67;;
30892;SDS011;17595;50.884;4.346;2022-11-21T00:26:57;12.75;;;3.97;;
30892;SDS011;17595;50.884;4.346;2022-11-21T00:29:23;14.88;;;4.65;;
30892;SDS011;17595;50.884;4.346;2022-11-21T00:31:48;16.27;;;4.35;;
30892;SDS011;17595;50.884;4.346;2022-11-21T00:34:14;13.82;;;4.38;;
30892;SDS011;17595;50.884;4.346;2022-11-21T00:36:41;12.30;;;4.38;;
30892;SDS011;17595;50.884;4.346;2022-11-21T00:39:07;14.63;;;4.43;;
30892;SDS011;17595;50.884;4.346;2022-11-21T00:41:32;18.85;;;4.38;;
30892;SDS011;17595;50.884;4.346;2022-11-21T00:43:58;12.15;;;4.47;;
30892;SDS011;17595;50.884;4.346;2022-11-21T00:46:24;14.40;;;4.15;;
30892;SDS011;17595;50.884;4.346;2022-11-21T00:48:49;15.35;;;4.97;;
30892;SDS011;17595;50.884;4.346;2022-11-21T00:51:15;13.32;;;3.95;;
30892;SDS011;17595;50.884;4.346;2022-11-21T00:53:41;13.82;;;4.60;;
30892;SDS011;17595;50.884;4.346;2022-11-21T00:56:07;13.25;;;3.95;;
30892;SDS011;17595;50.884;4.346;2022-11-21T00:58:32;11.48;;;3.55;;
30892;SDS011;17595;50.884;4.346;2022-11-21T01:01:09;16.10;;;4.20;;
30892;SDS011;17595;50.884;4.346;2022-11-21T01:03:36;9.98;;;3.80;;
30892;SDS011;17595;50.884;4.346;2022-11-21T01:06:04;10.32;;;3.55;;
30892;SDS011;17595;50.884;4.346;2022-11-21T01:08:35;12.95;;;3.78;;
30892;SDS011;17595;50.884;4.346;2022-11-21T01:11:03;12.77;;;3.50;;
30892;SDS011;17595;50.884;4.346;2022-11-21T01:13:30;11.07;;;3.60;;
30892;SDS011;17595;50.884;4.346;2022-11-21T01:15:56;12.80;;;3.92;;
30892;SDS011;17595;50.884;4.346;2022-11-21T01:18:43;10.55;;;3.45;;
30892;SDS011;17595;50.884;4.346;2022-11-21T01:21:13;16.50;;;3.78;;
30892;SDS011;17595;50.884;4.346;2022-11-21T01:23:44;14.63;;;3.08;;
30892;SDS011;17595;50.884;4.346;2022-11-21T01:26:12;9.52;;;3.10;;
30892;SDS011;17595;50.884;4.346;2022-11-21T01:31:07;12.90;;;3.67;;
30892;SDS011;17595;50.884;4.346;2022-11-21T01:33:37;15.10;;;3.40;;
30892;SDS011;17595;50.884;4.346;2022-11-21T01:36:10;12.05;;;3.10;;
30892;SDS011;17595;50.884;4.346;2022-11-21T01:38:41;18.35;;;3.40;;
30892;SDS011;17595;50.884;4.346;2022-11-21T01:41:09;9.57;;;2.95;;
30892;SDS011;17595;50.884;4.346;2022-11-21T01:43:36;10.10;;;3.15;;
30892;SDS011;17595;50.884;4.346;2022-11-21T01:46:10;11.40;;;3.15;;
30892;SDS011;17595;50.884;4.346;2022-11-21T01:51:08;13.30;;;2.80;;
30892;SDS011;17595;50.884;4.346;2022-11-21T01:53:39;9.10;;;2.60;;
30892;SDS011;17595;50.884;4.346;2022-11-21T01:56:08;8.93;;;2.70;;
30892;SDS011;17595;50.884;4.346;2022-11-21T01:58:34;10.65;;;2.90;;
30892;SDS011;17595;50.884;4.346;2022-11-21T02:01:02;10.20;;;2.90;;
30892;SDS011;17595;50.884;4.346;2022-11-21T02:03:29;10.07;;;3.08;;
30892;SDS011;17595;50.884;4.346;2022-11-21T02:08:23;7.40;;;2.78;;
30892;SDS011;17595;50.884;4.346;2022-11-21T02:11:02;9.48;;;3.50;;
30892;SDS011;17595;50.884;4.346;2022-11-21T02:13:49;7.65;;;2.67;;
30892;SDS011;17595;50.884;4.346;2022-11-21T02:16:16;16.00;;;2.97;;
30892;SDS011;17595;50.884;4.346;2022-11-21T02:18:41;8.75;;;3.25;;
30892;SDS011;17595;50.884;4.346;2022-11-21T02:21:29;10.57;;;3.47;;
30892;SDS011;17595;50.884;4.346;2022-11-21T02:24:16;9.88;;;2.90;;
30892;SDS011;17595;50.884;4.346;2022-11-21T02:26:47;12.57;;;2.90;;
30892;SDS011;17595;50.884;4.346;2022-11-21T02:29:14;13.27;;;3.05;;
30892;SDS011;17595;50.884;4.346;2022-11-21T02:31:40;6.07;;;2.78;;
30892;SDS011;17595;50.884;4.346;2022-11-21T02:34:05;10.55;;;2.85;;
30892;SDS011;17595;50.884;4.346;2022-11-21T02:36:41;9.15;;;2.70;;
30892;SDS011;17595;50.884;4.346;2022-11-21T02:39:21;31.73;;;3.95;;
30892;SDS011;17595;50.884;4.346;2022-11-21T02:42:00;12.15;;;2.78;;
30892;SDS011;17595;50.884;4.346;2022-11-21T02:44:43;8.55;;;2.83;;
30892;SDS011;17595;50.884;4.346;2022-11-21T02:47:18;9.32;;;2.75;;
30892;SDS011;17595;50.884;4.346;2022-11-21T02:49:51;13.38;;;2.70;;
30892;SDS011;17595;50.884;4.346;2022-11-21T02:52:31;10.65;;;2.60;;
30892;SDS011;17595;50.884;4.346;2022-11-21T02:54:57;10.02;;;2.53;;
30892;SDS011;17595;50.884;4.346;2022-11-21T02:57:22;11.27;;;3.05;;
30892;SDS011;17595;50.884;4.346;2022-11-21T02:59:48;9.63;;;2.40;;
30892;SDS011;17595;50.884;4.346;2022-11-21T03:02:13;7.63;;;2.92;;
30892;SDS011;17595;50.884;4.346;2022-11-21T03:04:39;8.50;;;3.08;;
30892;SDS011;17595;50.884;4.346;2022-11-21T03:07:05;9.30;;;2.90;;
30892;SDS011;17595;50.884;4.346;2022-11-21T03:09:30;9.65;;;3.13;;
30892;SDS011;17595;50.884;4.346;2022-11-21T03:11:56;6.57;;;2.38;;
30892;SDS011;17595;50.884;4.346;2022-11-21T03:14:22;9.20;;;2.22;;
30892;SDS011;17595;50.884;4.346;2022-11-21T03:16:47;9.15;;;2.10;;
30892;SDS011;17595;50.884;4.346;2022-11-21T03:19:13;10.38;;;2.40;;
30892;SDS011;17595;50.884;4.346;2022-11-21T03:21:38;9.45;;;2.85;;
30892;SDS011;17595;50.884;4.346;2022-11-21T03:24:04;9.93;;;2.80;;
30892;SDS011;17595;50.884;4.346;2022-11-21T03:26:30;11.57;;;2.60;;
30892;SDS011;17595;50.884;4.346;2022-11-21T03:28:56;11.70;;;2.70;;
30892;SDS011;17595;50.884;4.346;2022-11-21T03:31:21;5.95;;;2.13;;
30892;SDS011;17595;50.884;4.346;2022-11-21T03:33:47;10.73;;;2.53;;
30892;SDS011;17595;50.884;4.346;2022-11-21T03:36:12;10.85;;;2.28;;
30892;SDS011;17595;50.884;4.346;2022-11-21T03:38:38;8.20;;;2.13;;
30892;SDS011;17595;50.884;4.346;2022-11-21T03:41:04;8.98;;;2.70;;
30892;SDS011;17595;50.884;4.346;2022-11-21T03:43:50;7.72;;;2.30;;
30892;SDS011;17595;50.884;4.346;2022-11-21T03:46:16;6.45;;;2.22;;
30892;SDS011;17595;50.884;4.346;2022-11-21T03:48:41;10.07;;;2.30;;
30892;SDS011;17595;50.884;4.346;2022-11-21T03:51:07;10.18;;;2.20;;
30892;SDS011;17595;50.884;4.346;2022-11-21T03:53:32;7.72;;;2.15;;
30892;SDS011;17595;50.884;4.346;2022-11-21T03:55:58;9.68;;;2.28;;
30892;SDS011;17595;50.884;4.346;2022-11-21T03:58:23;8.50;;;2.30;;
30892;SDS011;17595;50.884;4.346;2022-11-21T04:00:49;7.18;;;2.00;;
30892;SDS011;17595;50.884;4.346;2022-11-21T04:03:15;5.95;;;1.85;;
30892;SDS011;17595;50.884;4.346;2022-11-21T04:05:40;11.02;;;3.00;;
30892;SDS011;17595;50.884;4.346;2022-11-21T04:08:08;4.88;;;2.10;;
30892;SDS011;17595;50.884;4.346;2022-11-21T04:10:33;8.90;;;2.35;;
30892;SDS011;17595;50.884;4.346;2022-11-21T04:12:59;9.45;;;2.42;;
30892;SDS011;17595;50.884;4.346;2022-11-21T04:15:24;7.63;;;2.25;;
30892;SDS011;17595;50.884;4.346;2022-11-21T04:17:50;11.10;;;2.63;;
30892;SDS011;17595;50.884;4.346;2022-11-21T04:20:15;11.02;;;2.67;;
30892;SDS011;17595;50.884;4.346;2022-11-21T04:22:41;6.75;;;2.10;;
30892;SDS011;17595;50.884;4.346;2022-11-21T04:25:07;8.30;;;1.83;;
30892;SDS011;17595;50.884;4.346;2022-11-21T04:27:33;10.07;;;2.42;;
30892;SDS011;17595;50.884;4.346;2022-11-21T04:29:58;8.18;;;2.33;;
30892;SDS011;17595;50.884;4.346;2022-11-21T04:32:24;10.95;;;2.78;;
30892;SDS011;17595;50.884;4.346;2022-11-21T04:34:49;10.05;;;2.28;;
30892;SDS011;17595;50.884;4.346;2022-11-21T04:37:15;7.22;;;2.25;;
30892;SDS011;17595;50.884;4.346;2022-11-21T04:39:41;6.50;;;2.65;;
30892;SDS011;17595;50.884;4.346;2022-11-21T04:42:06;10.55;;;2.97;;
30892;SDS011;17595;50.884;4.346;2022-11-21T04:44:32;8.30;;;2.28;;
30892;SDS011;17595;50.884;4.346;2022-11-21T04:46:57;10.02;;;2.13;;
30892;SDS011;17595;50.884;4.346;2022-11-21T04:49:24;15.95;;;4.20;;
30892;SDS011;17595;50.884;4.346;2022-11-21T04:51:50;7.70;;;2.60;;
30892;SDS011;17595;50.884;4.346;2022-11-21T04:54:15;8.98;;;2.50;;
30892;SDS011;17595;50.884;4.346;2022-11-21T04:56:41;8.25;;;2.70;;
30892;SDS011;17595;50.884;4.346;2022-11-21T04:59:06;8.15;;;2.25;;
30892;SDS011;17595;50.884;4.346;2022-11-21T05:01:36;6.43;;;2.03;;
30892;SDS011;17595;50.884;4.346;2022-11-21T05:04:02;8.00;;;2.22;;
30892;SDS011;17595;50.884;4.346;2022-11-21T05:06:27;9.82;;;2.25;;
30892;SDS011;17595;50.884;4.346;2022-11-21T05:08:53;6.35;;;2.30;;
30892;SDS011;17595;50.884;4.346;2022-11-21T05:11:18;8.70;;;2.45;;
30892;SDS011;17595;50.884;4.346;2022-11-21T05:14:03;10.25;;;2.47;;
30892;SDS011;17595;50.884;4.346;2022-11-21T05:16:28;6.70;;;2.53;;
30892;SDS011;17595;50.884;4.346;2022-11-21T05:18:56;12.40;;;2.53;;
30892;SDS011;17595;50.884;4.346;2022-11-21T05:21:21;8.20;;;2.30;;
30892;SDS011;17595;50.884;4.346;2022-11-21T05:23:47;6.78;;;2.03;;
30892;SDS011;17595;50.884;4.346;2022-11-21T05:26:12;9.35;;;2.20;;
30892;SDS011;17595;50.884;4.346;2022-11-21T05:28:38;4.95;;;2.60;;
30892;SDS011;17595;50.884;4.346;2022-11-21T05:31:04;11.90;;;2.60;;
30892;SDS011;17595;50.884;4.346;2022-11-21T05:33:29;11.77;;;2.97;;
30892;SDS011;17595;50.884;4.346;2022-11-21T05:35:55;8.05;;;2.65;;
30892;SDS011;17595;50.884;4.346;2022-11-21T05:38:20;14.48;;;2.90;;
30892;SDS011;17595;50.884;4.346;2022-11-21T05:40:46;9.60;;;2.80;;
30892;SDS011;17595;50.884;4.346;2022-11-21T05:43:12;9.00;;;2.65;;
30892;SDS011;17595;50.884;4.346;2022-11-21T05:45:56;10.35;;;3.00;;
30892;SDS011;17595;50.884;4.346;2022-11-21T05:48:21;10.20;;;3.03;;
30892;SDS011;17595;50.884;4.346;2022-11-21T05:50:47;7.50;;;2.50;;
30892;SDS011;17595;50.884;4.346;2022-11-21T05:53:14;9.13;;;2.38;;
30892;SDS011;17595;50.884;4.346;2022-11-21T05:55:40;6.95;;;2.67;;
30892;SDS011;17595;50.884;4.346;2022-11-21T05:58:05;10.40;;;2.58;;
30892;SDS011;17595;50.884;4.346;2022-11-21T06:00:33;10.63;;;3.05;;
30892;SDS011;17595;50.884;4.346;2022-11-21T06:02:59;8.25;;;2.88;;
30892;SDS011;17595;50.884;4.346;2022-11-21T06:05:42;13.32;;;3.25;;
30892;SDS011;17595;50.884;4.346;2022-11-21T06:08:08;10.00;;;3.33;;
30892;SDS011;17595;50.884;4.346;2022-11-21T06:10:34;9.07;;;2.92;;
30892;SDS011;17595;50.884;4.346;2022-11-21T06:13:00;10.13;;;3.08;;
30892;SDS011;17595;50.884;4.346;2022-11-21T06:15:26;13.25;;;3.20;;
30892;SDS011;17595;50.884;4.346;2022-11-21T06:17:52;7.45;;;2.88;;
30892;SDS011;17595;50.884;4.346;2022-11-21T06:20:18;8.02;;;2.92;;
30892;SDS011;17595;50.884;4.346;2022-11-21T06:22:44;10.30;;;2.97;;
30892;SDS011;17595;50.884;4.346;2022-11-21T06:25:09;12.25;;;3.42;;
30892;SDS011;17595;50.884;4.346;2022-11-21T06:27:35;8.63;;;2.83;;
30892;SDS011;17595;50.884;4.346;2022-11-21T06:30:00;8.52;;;2.95;;
30892;SDS011;17595;50.884;4.346;2022-11-21T06:32:26;9.48;;;2.85;;
30892;SDS011;17595;50.884;4.346;2022-11-21T06:34:52;7.93;;;2.80;;
30892;SDS011;17595;50.884;4.346;2022-11-21T06:37:17;6.97;;;2.90;;
30892;SDS011;17595;50.884;4.346;2022-11-21T06:39:43;11.90;;;3.33;;
30892;SDS011;17595;50.884;4.346;2022-11-21T06:42:08;14.38;;;3.35;;
30892;SDS011;17595;50.884;4.346;2022-11-21T06:44:34;12.02;;;3.65;;
30892;SDS011;17595;50.884;4.346;2022-11-21T06:46:59;10.73;;;3.28;;
30892;SDS011;17595;50.884;4.346;2022-11-21T06:49:25;9.98;;;3.17;;
30892;SDS011;17595;50.884;4.346;2022-11-21T06:51:51;6.80;;;2.65;;
30892;SDS011;17595;50.884;4.346;2022-11-21T06:54:17;11.45;;;2.75;;
30892;SDS011;17595;50.884;4.346;2022-11-21T06:56:42;8.60;;;2.70;;
30892;SDS011;17595;50.884;4.346;2022-11-21T06:59:08;8.68;;;3.15;;
30892;SDS011;17595;50.884;4.346;2022-11-21T07:01:34;6.70;;;2.35;;
30892;SDS011;17595;50.884;4.346;2022-11-21T07:03:59;12.52;;;2.67;;
30892;SDS011;17595;50.884;4.346;2022-11-21T07:06:25;10.63;;;2.95;;
30892;SDS011;17595;50.884;4.346;2022-11-21T07:08:51;8.13;;;2.80;;
30892;SDS011;17595;50.884;4.346;2022-11-21T07:11:18;11.52;;;3.63;;
30892;SDS011;17595;50.884;4.346;2022-11-21T07:13:44;10.10;;;2.58;;
30892;SDS011;17595;50.884;4.346;2022-11-21T07:16:10;6.95;;;3.17;;
30892;SDS011;17595;50.884;4.346;2022-11-21T07:18:39;10.98;;;2.75;;
30892;SDS011;17595;50.884;4.346;2022-11-21T07:21:06;10.35;;;2.47;;
30892;SDS011;17595;50.884;4.346;2022-11-21T07:23:32;12.52;;;2.92;;
30892;SDS011;17595;50.884;4.346;2022-11-21T07:25:59;10.82;;;2.45;;
30892;SDS011;17595;50.884;4.346;2022-11-21T07:28:27;8.95;;;3.25;;
30892;SDS011;17595;50.884;4.346;2022-11-21T07:30:56;12.10;;;3.08;;
30892;SDS011;17595;50.884;4.346;2022-11-21T07:33:23;13.70;;;3.40;;
30892;SDS011;17595;50.884;4.346;2022-11-21T07:35:48;5.68;;;3.25;;
30892;SDS011;17595;50.884;4.346;2022-11-21T07:38:14;11.10;;;3.67;;
30892;SDS011;17595;50.884;4.346;2022-11-21T07:40:40;7.88;;;3.25;;
30892;SDS011;17595;50.884;4.346;2022-11-21T07:43:05;15.07;;;3.50;;
30892;SDS011;17595;50.884;4.346;2022-11-21T07:45:32;9.57;;;3.53;;
30892;SDS011;17595;50.884;4.346;2022-11-21T07:47:59;11.43;;;3.17;;
30892;SDS011;17595;50.884;4.346;2022-11-21T07:50:25;10.63;;;3.13;;
30892;SDS011;17595;50.884;4.346;2022-11-21T07:53:02;9.13;;;3.22;;
30892;SDS011;17595;50.884;4.346;2022-11-21T07:55:32;10.43;;;3.78;;
30892;SDS011;17595;50.884;4.346;2022-11-21T08:00:24;12.00;;;3.38;;
30892;SDS011;17595;50.884;4.346;2022-11-21T08:02:50;13.90;;;3.20;;
30892;SDS011;17595;50.884;4.346;2022-11-21T08:05:16;16.35;;;3.88;;
30892;SDS011;17595;50.884;4.346;2022-11-21T08:07:41;12.40;;;4.00;;
30892;SDS011;17595;50.884;4.346;2022-11-21T08:10:07;9.95;;;3.72;;
30892;SDS011;17595;50.884;4.346;2022-11-21T08:12:33;12.02;;;4.20;;
30892;SDS011;17595;50.884;4.346;2022-11-21T08:14:58;15.25;;;4.78;;
30892;SDS011;17595;50.884;4.346;2022-11-21T08:17:25;12.40;;;4.30;;
30892;SDS011;17595;50.884;4.346;2022-11-21T08:19:50;14.20;;;4.50;;
30892;SDS011;17595;50.884;4.346;2022-11-21T08:22:16;15.50;;;4.65;;
30892;SDS011;17595;50.884;4.346;2022-11-21T08:24:42;12.48;;;4.97;;
30892;SDS011;17595;50.884;4.346;2022-11-21T08:27:07;13.15;;;4.57;;
30892;SDS011;17595;50.884;4.346;2022-11-21T08:29:33;12.57;;;5.75;;
30892;SDS011;17595;50.884;4.346;2022-11-21T08:31:59;19.48;;;5.70;;
30892;SDS011;17595;50.884;4.346;2022-11-21T08:34:25;16.15;;;6.03;;
30892;SDS011;17595;50.884;4.346;2022-11-21T08:36:51;21.52;;;5.50;;
30892;SDS011;17595;50.884;4.346;2022-11-21T08:39:17;17.38;;;5.50;;
30892;SDS011;17595;50.884;4.346;2022-11-21T08:41:43;15.45;;;4.72;;
30892;SDS011;17595;50.884;4.346;2022-11-21T08:44:27;15.15;;;5.15;;
30892;SDS011;17595;50.884;4.346;2022-11-21T08:46:57;13.77;;;4.95;;
30892;SDS011;17595;50.884;4.346;2022-11-21T08:49:23;20.05;;;5.80;;
30892;SDS011;17595;50.884;4.346;2022-11-21T08:51:49;13.65;;;5.47;;
30892;SDS011;17595;50.884;4.346;2022-11-21T08:54:16;18.55;;;5.68;;
30892;SDS011;17595;50.884;4.346;2022-11-21T08:56:42;16.95;;;4.95;;
30892;SDS011;17595;50.884;4.346;2022-11-21T08:59:09;17.98;;;4.78;;
30892;SDS011;17595;50.884;4.346;2022-11-21T09:01:34;17.65;;;5.22;;
30892;SDS011;17595;50.884;4.346;2022-11-21T09:04:00;19.27;;;5.32;;
30892;SDS011;17595;50.884;4.346;2022-11-21T09:06:26;15.52;;;5.57;;
30892;SDS011;17595;50.884;4.346;2022-11-21T09:08:51;17.98;;;5.00;;
30892;SDS011;17595;50.884;4.346;2022-11-21T09:11:17;14.23;;;5.07;;
30892;SDS011;17595;50.884;4.346;2022-11-21T09:13:43;13.23;;;4.55;;
30892;SDS011;17595;50.884;4.346;2022-11-21T09:16:28;15.80;;;4.57;;
30892;SDS011;17595;50.884;4.346;2022-11-21T09:19:12;15.65;;;4.07;;
30892;SDS011;17595;50.884;4.346;2022-11-21T09:21:38;15.02;;;4.57;;
30892;SDS011;17595;50.884;4.346;2022-11-21T09:24:03;11.88;;;3.90;;
30892;SDS011;17595;50.884;4.346;2022-11-21T09:26:29;9.07;;;3.75;;
30892;SDS011;17595;50.884;4.346;2022-11-21T09:28:54;12.55;;;4.13;;
30892;SDS011;17595;50.884;4.346;2022-11-21T09:31:21;12.98;;;4.05;;
30892;SDS011;17595;50.884;4.346;2022-11-21T09:33:47;15.20;;;4.10;;
30892;SDS011;17595;50.884;4.346;2022-11-21T09:36:12;10.70;;;4.07;;
30892;SDS011;17595;50.884;4.346;2022-11-21T09:38:38;12.27;;;4.40;;
30892;SDS011;17595;50.884;4.346;2022-11-21T09:41:21;19.75;;;4.90;;
30892;SDS011;17595;50.884;4.346;2022-11-21T09:44:21;15.45;;;3.65;;
30892;SDS011;17595;50.884;4.346;2022-11-21T09:46:57;14.30;;;4.40;;
30892;SDS011;17595;50.884;4.346;2022-11-21T09:49:35;12.57;;;3.75;;
30892;SDS011;17595;50.884;4.346;2022-11-21T09:52:06;13.13;;;3.75;;
30892;SDS011;17595;50.884;4.346;2022-11-21T09:54:35;14.75;;;3.50;;
30892;SDS011;17595;50.884;4.346;2022-11-21T09:57:08;12.30;;;3.35;;
30892;SDS011;17595;50.884;4.346;2022-11-21T09:59:36;7.75;;;3.63;;
30892;SDS011;17595;50.884;4.346;2022-11-21T10:02:13;11.40;;;4.15;;
30892;SDS011;17595;50.884;4.346;2022-11-21T10:04:40;7.82;;;3.50;;
30892;SDS011;17595;50.884;4.346;2022-11-21T10:07:07;12.02;;;4.32;;
30892;SDS011;17595;50.884;4.346;2022-11-21T10:15:55;7.72;;;4.18;;
30892;SDS011;17595;50.884;4.346;2022-11-21T10:31:50;13.27;;;6.30;;
30892;SDS011;17595;50.884;4.346;2022-11-21T10:34:25;10.02;;;6.40;;
30892;SDS011;17595;50.884;4.346;2022-11-21T10:36:56;10.50;;;6.80;;
30892;SDS011;17595;50.884;4.346;2022-11-21T10:39:40;15.43;;;7.78;;
30892;SDS011;17595;50.884;4.346;2022-11-21T10:42:31;16.73;;;8.02;;
30892;SDS011;17595;50.884;4.346;2022-11-21T10:45:21;19.75;;;8.95;;
30892;SDS011;17595;50.884;4.346;2022-11-21T10:47:52;15.13;;;8.57;;
30892;SDS011;17595;50.884;4.346;2022-11-21T10:52:59;18.80;;;9.85;;
30892;SDS011;17595;50.884;4.346;2022-11-21T10:55:56;17.23;;;9.30;;
30892;SDS011;17595;50.884;4.346;2022-11-21T10:58:43;15.43;;;9.40;;
30892;SDS011;17595;50.884;4.346;2022-11-21T11:01:17;18.80;;;8.90;;
30892;SDS011;17595;50.884;4.346;2022-11-21T11:06:35;18.25;;;8.55;;
30892;SDS011;17595;50.884;4.346;2022-11-21T11:09:01;22.77;;;8.48;;
30892;SDS011;17595;50.884;4.346;2022-11-21T11:11:27;25.27;;;7.82;;
30892;SDS011;17595;50.884;4.346;2022-11-21T11:14:00;14.25;;;7.43;;
30892;SDS011;17595;50.884;4.346;2022-11-21T11:16:28;16.48;;;6.90;;
30892;SDS011;17595;50.884;4.346;2022-11-21T11:18:59;16.27;;;7.50;;
30892;SDS011;17595;50.884;4.346;2022-11-21T11:21:49;15.98;;;6.88;;
30892;SDS011;17595;50.884;4.346;2022-11-21T11:47:57;9.98;;;5.40;;
30892;SDS011;17595;50.884;4.346;2022-11-21T11:50:35;13.18;;;5.60;;
30892;SDS011;17595;50.884;4.346;2022-11-21T11:53:06;19.05;;;6.10;;
30892;SDS011;17595;50.884;4.346;2022-11-21T11:58:24;13.18;;;6.57;;
30892;SDS011;17595;50.884;4.346;2022-11-21T12:01:14;17.38;;;6.65;;
30892;SDS011;17595;50.884;4.346;2022-11-21T12:06:36;20.60;;;6.30;;
30892;SDS011;17595;50.884;4.346;2022-11-21T12:12:01;13.65;;;6.65;;
30892;SDS011;17595;50.884;4.346;2022-11-21T12:17:28;12.90;;;5.85;;
30892;SDS011;17595;50.884;4.346;2022-11-21T12:19:59;11.35;;;5.90;;
30892;SDS011;17595;50.884;4.346;2022-11-21T12:22:29;14.32;;;5.93;;
30892;SDS011;17595;50.884;4.346;2022-11-21T12:24:54;15.63;;;5.53;;
30892;SDS011;17595;50.884;4.346;2022-11-21T12:30:11;13.50;;;5.97;;
30892;SDS011;17595;50.884;4.346;2022-11-21T12:32:54;13.32;;;4.93;;
30892;SDS011;17595;50.884;4.346;2022-11-21T12:45:32;16.02;;;5.03;;
30892;SDS011;17595;50.884;4.346;2022-11-21T13:00:01;15.18;;;4.68;;
30892;SDS011;17595;50.884;4.346;2022-11-21T13:05:36;17.70;;;5.18;;
30892;SDS011;17595;50.884;4.346;2022-11-21T13:08:15;14.63;;;5.75;;
30892;SDS011;17595;50.884;4.346;2022-11-21T13:10:58;11.45;;;4.90;;
30892;SDS011;17595;50.884;4.346;2022-11-21T13:13:46;12.70;;;5.72;;
30892;SDS011;17595;50.884;4.346;2022-11-21T13:16:18;13.25;;;5.32;;
30892;SDS011;17595;50.884;4.346;2022-11-21T13:19:01;12.38;;;5.70;;
30892;SDS011;17595;50.884;4.346;2022-11-21T13:21:52;15.07;;;5.50;;
30892;SDS011;17595;50.884;4.346;2022-11-21T13:27:08;14.52;;;4.65;;
30892;SDS011;17595;50.884;4.346;2022-11-21T13:32:51;13.48;;;4.40;;
30892;SDS011;17595;50.884;4.346;2022-11-21T13:43:19;6.40;;;3.22;;
30892;SDS011;17595;50.884;4.346;2022-11-21T13:45:49;13.00;;;3.63;;
30892;SDS011;17595;50.884;4.346;2022-11-21T13:55:58;8.02;;;2.72;;
30892;SDS011;17595;50.884;4.346;2022-11-21T14:06:35;15.73;;;3.05;;
30892;SDS011;17595;50.884;4.346;2022-11-21T14:14:20;9.02;;;2.95;;
30892;SDS011;17595;50.884;4.346;2022-11-21T14:19:57;8.65;;;2.20;;
30892;SDS011;17595;50.884;4.346;2022-11-21T14:24:58;9.55;;;2.67;;
30892;SDS011;17595;50.884;4.346;2022-11-21T14:27:28;7.32;;;2.42;;
30892;SDS011;17595;50.884;4.346;2022-11-21T14:29:55;8.85;;;2.90;;
30892;SDS011;17595;50.884;4.346;2022-11-21T14:32:25;8.80;;;2.70;;
30892;SDS011;17595;50.884;4.346;2022-11-21T14:35:14;9.52;;;2.85;;
30892;SDS011;17595;50.884;4.346;2022-11-21T14:37:44;9.35;;;2.35;;
30892;SDS011;17595;50.884;4.346;2022-11-21T14:40:14;9.15;;;2.75;;
30892;SDS011;17595;50.884;4.346;2022-11-21T14:42:45;7.75;;;2.22;;
30892;SDS011;17595;50.884;4.346;2022-11-21T14:45:18;9.98;;;2.72;;
30892;SDS011;17595;50.884;4.346;2022-11-21T14:47:48;9.77;;;2.65;;
30892;SDS011;17595;50.884;4.346;2022-11-21T14:50:25;10.77;;;2.83;;
30892;SDS011;17595;50.884;4.346;2022-11-21T14:52:52;9.13;;;2.67;;
30892;SDS011;17595;50.884;4.346;2022-11-21T14:55:23;7.22;;;2.15;;
30892;SDS011;17595;50.884;4.346;2022-11-21T15:00:18;6.57;;;2.35;;
30892;SDS011;17595;50.884;4.346;2022-11-21T15:02:46;7.43;;;2.10;;
30892;SDS011;17595;50.884;4.346;2022-11-21T15:05:17;6.40;;;2.35;;
30892;SDS011;17595;50.884;4.346;2022-11-21T15:07:45;10.25;;;2.97;;
30892;SDS011;17595;50.884;4.346;2022-11-21T15:10:14;7.22;;;2.58;;
30892;SDS011;17595;50.884;4.346;2022-11-21T15:18:00;11.57;;;2.63;;
30892;SDS011;17595;50.884;4.346;2022-11-21T15:20:27;10.55;;;2.72;;
30892;SDS011;17595;50.884;4.346;2022-11-21T15:22:55;9.52;;;2.25;;
30892;SDS011;17595;50.884;4.346;2022-11-21T15:25:23;10.25;;;3.00;;
30892;SDS011;17595;50.884;4.346;2022-11-21T15:43:35;9.80;;;2.97;;
30892;SDS011;17595;50.884;4.346;2022-11-21T15:46:15;7.57;;;2.67;;
30892;SDS011;17595;50.884;4.346;2022-11-21T15:48:47;10.05;;;3.08;;
30892;SDS011;17595;50.884;4.346;2022-11-21T15:51:18;6.00;;;2.60;;
30892;SDS011;17595;50.884;4.346;2022-11-21T15:53:46;9.20;;;2.72;;
30892;SDS011;17595;50.884;4.346;2022-11-21T15:56:13;6.68;;;2.83;;
30892;SDS011;17595;50.884;4.346;2022-11-21T15:58:40;10.00;;;3.40;;
30892;SDS011;17595;50.884;4.346;2022-11-21T16:01:10;9.35;;;2.95;;
30892;SDS011;17595;50.884;4.346;2022-11-21T16:03:37;9.10;;;3.17;;
30892;SDS011;17595;50.884;4.346;2022-11-21T16:06:03;11.18;;;3.33;;
30892;SDS011;17595;50.884;4.346;2022-11-21T16:08:29;13.63;;;3.70;;
30892;SDS011;17595;50.884;4.346;2022-11-21T16:10:54;12.65;;;3.20;;
30892;SDS011;17595;50.884;4.346;2022-11-21T16:13:20;9.35;;;3.30;;
30892;SDS011;17595;50.884;4.346;2022-11-21T16:15:45;14.70;;;4.03;;
30892;SDS011;17595;50.884;4.346;2022-11-21T16:18:11;10.27;;;3.45;;
30892;SDS011;17595;50.884;4.346;2022-11-21T16:20:37;11.90;;;3.63;;
30892;SDS011;17595;50.884;4.346;2022-11-21T16:23:02;11.77;;;3.38;;
30892;SDS011;17595;50.884;4.346;2022-11-21T16:25:28;10.52;;;3.85;;
30892;SDS011;17595;50.884;4.346;2022-11-21T16:27:55;11.77;;;3.80;;
30892;SDS011;17595;50.884;4.346;2022-11-21T16:30:21;10.48;;;3.08;;
30892;SDS011;17595;50.884;4.346;2022-11-21T16:32:46;10.10;;;3.17;;
30892;SDS011;17595;50.884;4.346;2022-11-21T16:35:12;11.73;;;3.67;;
30892;SDS011;17595;50.884;4.346;2022-11-21T16:37:37;13.45;;;3.47;;
30892;SDS011;17595;50.884;4.346;2022-11-21T16:40:03;12.10;;;3.33;;
30892;SDS011;17595;50.884;4.346;2022-11-21T16:42:29;11.05;;;3.50;;
30892;SDS011;17595;50.884;4.346;2022-11-21T16:44:55;13.25;;;3.05;;
30892;SDS011;17595;50.884;4.346;2022-11-21T16:47:20;11.95;;;3.25;;
30892;SDS011;17595;50.884;4.346;2022-11-21T16:49:46;10.27;;;3.05;;
30892;SDS011;17595;50.884;4.346;2022-11-21T16:52:13;13.65;;;3.38;;
30892;SDS011;17595;50.884;4.346;2022-11-21T16:54:38;11.25;;;3.55;;
30892;SDS011;17595;50.884;4.346;2022-11-21T16:57:04;14.15;;;3.83;;
30892;SDS011;17595;50.884;4.346;2022-11-21T16:59:30;12.65;;;3.90;;
30892;SDS011;17595;50.884;4.346;2022-11-21T17:01:56;12.88;;;3.80;;
30892;SDS011;17595;50.884;4.346;2022-11-21T17:04:22;13.02;;;3.50;;
30892;SDS011;17595;50.884;4.346;2022-11-21T17:06:48;8.90;;;3.60;;
30892;SDS011;17595;50.884;4.346;2022-11-21T17:09:16;12.00;;;3.90;;
30892;SDS011;17595;50.884;4.346;2022-11-21T17:11:42;20.20;;;4.63;;
30892;SDS011;17595;50.884;4.346;2022-11-21T17:14:09;14.15;;;3.95;;
30892;SDS011;17595;50.884;4.346;2022-11-21T17:16:36;12.35;;;3.67;;
30892;SDS011;17595;50.884;4.346;2022-11-21T17:19:03;10.60;;;3.33;;
30892;SDS011;17595;50.884;4.346;2022-11-21T17:21:29;15.98;;;4.20;;
30892;SDS011;17595;50.884;4.346;2022-11-21T17:23:56;12.77;;;4.07;;
30892;SDS011;17595;50.884;4.346;2022-11-21T17:26:23;14.48;;;4.03;;
30892;SDS011;17595;50.884;4.346;2022-11-21T17:31:17;11.50;;;3.40;;